Aérodrome :
LOGIN :

S'inscrire | Disclaimer

   EN    FR    IT 

 










Légende :    VFR   VFR Marginal   IFR   IFR Intensif   IFR Très Intensif
Visi : 
Plafond : 
>= 8 km
>= 3000ft
5 à 8 km
1000 à 3000 ft
1500m à 5 km
500 à 1000 ft
800 à 1500m
200 à 500 ft
< 800m
< 200 ft
Symboles :   Orages  Brouillard  Fortes neiges  Fortes précipitations  Vent > 20 kt
SIGMETs :   Divers  Orages  Givrage  Turbulence  Onde Orograph.  Cendres Volcan.






- Altitude de l'aérodrome : 13 ft
- Code IATA : SNR


LFRZ - St-Nazaire

DERNIER METAR :
  • 221900Z AUTO 23009KT 9999 OVC005 11/10 Q1032 TEMPO 4000 -RA

METARs EXPIRÉS :
  • 221830Z AUTO 23010KT 9000 OVC006 11/10 Q1032 TEMPO 4000 -RA
  • 221800Z AUTO 23010KT 6000 OVC006 11/10 Q1032 TEMPO 4000 -RA
  • 221730Z AUTO 24011KT 4200 -RA BR BKN007 OVC012 11/10 Q1032 BECMG 9999 NSW
  • 221700Z AUTO 24010KT 8000 OVC008 11/10 Q1031 TEMPO BKN012
  • 221630Z AUTO 24013KT 9999 BKN010 OVC014 11/10 Q1031 NOSIG

TAF AMD TAF LFRZ
Valide du 22 à 18h jusqu'au 23 à 18h UTC


221738Z 2218/2318 24015KT 9999 BKN015
TEMPO 2218/2309 4000 -RA BKN007
TEMPO 2303/2312 24018G28KT
TEMPO 2309/2312 4000 BR BKN003
PROB30
TEMPO 2315/2318 1500 -DZ BKN002



MET'MAP, la Météo Aéronautique d'un coup d'oeil ! - Copyright ORBIFLY Décembre 2007 - Disclaimer

ORBIFLY MET'MAP TEAM :

Programmation & Développement : Alexandra Zaïnal
Sur une idée originale de : Baudouin d'Aumeries
Assistance à la programmation : Marc-Olivier Méhu
Soutien technique & logistique : Manuel Goepfert

Contact : metmap@orbifly.com




SOURCES & CREDITS :

   NOAA